Shonto, AZ (86054)

4:23 AM MDT on September 20, 2014 (GMT -0600)
RAWS NAVAJO MONUMENT AZ US | Change Station
CLOSE
Current Station
Personal Weather Station
Location: Shonto, AZ
Elevation: 7278 ft
Nearby Weather Stations

Elev 7278 ft 36.68 °N, 110.54 °W | Updated 47 minutes ago

Clear
Clear
57 °F
Feels Like 57 °F
N
3
Wind Variable Wind from East
Gusts 4.0 mph

Today
High -- | Low -- °F
--% Chance of Precip.
Yesterday
High -- | Low -- °F
Precip. -- in
7:08 AM 7:22 PM
Waning Crescent, 13% visible
Pressure 30.19 in
Visibility 10.0 miles
Clouds Clear
Dew Point 44 °F
Humidity 62%
Rainfall 0.00 in
Snow Depth 4 in , 0 in , 0 in
UV 0 out of 12
Pollen 5.50 out of 12
Air Quality Not available.
Flu Activity Not available.
METAR KBDG 201015Z AUTO 29005KT 10SM CLR 18/05 A3019 RMK AO1 T01790053

More Conditions Fewer Conditions

Pressure 30.19 in
Visibility 10.0 miles
Clouds Clear
Dew Point 44 °F
Humidity 62%
Rainfall 0.00 in
Snow Depth 4 in , 0 in , 0 in
UV 0 out of 12
Pollen 5.50 out of 12
Air Quality Not available.
Flu Activity Not available.
METAR KBDG 201015Z AUTO 29005KT 10SM CLR 18/05 A3019 RMK AO1 T01790053

More Conditions Fewer Conditions

10-Day Weather Forecast

Almanac

Astronomy

Sep. 20, 2014 Rise Set
Actual Time 7:08 AM MDT 7:22 PM MDT
Civil Twilight 6:43 AM MDT 7:48 PM MDT
Nautical Twilight 6:12 AM MDT 8:18 PM MDT
Astronomical Twilight 5:42 AM MDT 8:48 PM MDT
Moon 3:55 AM MDT 5:24 PM MDT
Length of Visible Light 13h 05m
Length of Day
12h 13m
Tomorrow will be 2m 19s shorter.
Waning Crescent, 13% of the Moon is Illuminated
Today
Waning Crescent
Sep 24
New
Oct 1
First Quarter
Oct 8
Full
Oct 15
Last Quarter

Today's Extremes

State Highs State Lows

Community

WunderPhotos

Upload Photos

1,754,827 photos uploaded!

WunderBlogs® & News

Nearby

Snow Depth

Station Depth Elevation
Beaver Head 4 in 7990 ft
Snowslide Canyon 0 in 9730 ft
Promontory 0 in 7930 ft
Workman Creek 1 in 6900 ft
Wildcat 0 in 7850 ft

Earthquake Activity

City Distance Mag. Time & Date
No recent earthquake activity has been reported nearby.
Minimum magnitude displayed is 2.5.

Coastal Water Temperatures

Place Temperature
No Stations Reporting

Nearby Weather Stations